Renovo, PA

12:34 PM EDT on October 31, 2014 (GMT -0400)
RAWS COFFIN ROCK PA US | Change Station
CLOSE
Current Station
Personal Weather Station
Location: Renovo, PA
Elevation: 2336 ft
Nearby Weather Stations

Elev 2336 ft 41.24 °N, 77.75 °W | Updated 1 hour ago

Overcast
Overcast
39.0 °F
Feels Like 39.0 °F
N
1.0
Wind Variable Wind from WSW
Gusts 4.0 mph

Today
High -- | Low -- °F
--% Chance of Precip.
Yesterday
High -- | Low -- °F
Precip. -- in
7:41 AM 6:07 PM
First Quarter, 56% visible
Pressure 29.95 in
Visibility 10.0 miles
Clouds Overcast 5000 ft
Dew Point 32.0 °F
Humidity 77%
Rainfall 0.00 in
Snow Depth Not available.
UV 1 out of 12
Pollen .10 out of 12
Air Quality Not available.
Flu Activity Not available.
METAR KUNV 311553Z VRB04KT 10SM OVC050 07/02 A2995

More Conditions Fewer Conditions

Pressure 29.95 in
Visibility 10.0 miles
Clouds Overcast 5000 ft
Dew Point 32.0 °F
Humidity 77%
Rainfall 0.00 in
Snow Depth Not available.
UV 1 out of 12
Pollen .10 out of 12
Air Quality Not available.
Flu Activity Not available.
METAR KUNV 311553Z VRB04KT 10SM OVC050 07/02 A2995

More Conditions Fewer Conditions

10-Day Weather Forecast

Almanac

Astronomy

Oct. 31, 2014 Rise Set
Actual Time
Civil Twilight
Nautical Twilight
Astronomical Twilight
Moon
Length of Visible Light
Length of Day
Tomorrow will be .
, % of the Moon is Illuminated

Today's Extremes

State Highs State Lows

Community

WunderPhotos

Upload Photos

1,766,656 photos uploaded!

WunderBlogs® & News

Nearby

Air Quality

  Air Quality AQ Index Pollutant
Not available.

Snow Depth

Station Depth Elevation

Earthquake Activity

City Distance Mag. Time & Date
Minimum magnitude displayed is 2.5.

Coastal Water Temperatures

Place Temperature

Nearby Weather Stations